createdAt,value
2022-11-30T00:15:49.243Z,100558.53
2022-11-30T01:19:21.103Z,100573.53
2022-11-30T01:25:21.318Z,100562.44
2022-11-30T01:28:15.504Z,100555.75
2022-11-30T01:30:43.186Z,100553.44
2022-11-30T01:33:11.165Z,100541.72
2022-11-30T01:38:13.364Z,100549.25
2022-11-30T01:49:45.615Z,100551.69
2022-11-30T01:58:36.714Z,100550.16
2022-11-30T02:01:06.426Z,100545.94
2022-11-30T02:03:48.600Z,100551.63
2022-11-30T02:06:15.985Z,100537.19
2022-11-30T02:08:43.027Z,100545.19
2022-11-30T03:58:37.692Z,100540.53
2022-11-30T04:01:08.244Z,100543.13
2022-11-30T04:03:35.868Z,100537.34
2022-11-30T04:06:11.538Z,100543.66
2022-11-30T04:08:39.179Z,100541.16
2022-11-30T04:15:17.300Z,100538.81
2022-11-30T05:04:51.467Z,100552.44
2022-11-30T05:07:19.232Z,100545.25
2022-11-30T05:09:46.981Z,100549.13
2022-11-30T05:16:11.455Z,100549.41
2022-11-30T05:32:15.137Z,100561.63
2022-11-30T05:35:05.867Z,100560.44
2022-11-30T05:37:33.096Z,100565.06
2022-11-30T05:40:00.646Z,100560.81
2022-11-30T05:42:28.509Z,100555.50
2022-11-30T05:44:55.055Z,100565.28
2022-11-30T05:47:22.871Z,100555.47
2022-11-30T05:49:55.620Z,100558.78
2022-11-30T05:52:22.540Z,100556.72
2022-11-30T05:54:49.345Z,100570.09
2022-11-30T05:57:16.238Z,100564.53
2022-11-30T05:59:42.806Z,100565.50
2022-11-30T06:02:09.479Z,100553.84
2022-11-30T06:04:36.181Z,100559.63
2022-11-30T06:07:02.825Z,100560.91
2022-11-30T06:12:09.345Z,100573.50
2022-11-30T06:14:35.940Z,100575.13
2022-11-30T06:17:02.541Z,100571.75
2022-11-30T06:19:29.136Z,100582.87
2022-11-30T06:21:58.362Z,100579.19
2022-11-30T06:24:29.721Z,100586.88
2022-11-30T06:29:38.287Z,100591.00
2022-11-30T06:32:10.559Z,100587.09
2022-11-30T06:34:37.087Z,100584.97
2022-11-30T06:37:06.371Z,100594.13
2022-11-30T06:40:06.474Z,100600.22
2022-11-30T06:42:36.557Z,100602.72
2022-11-30T06:45:03.825Z,100594.84
2022-11-30T06:47:31.271Z,100596.59
2022-11-30T06:49:57.840Z,100599.41
2022-11-30T06:52:24.388Z,100596.84
2022-11-30T06:54:51.471Z,100596.19
2022-11-30T06:57:18.317Z,100598.81
2022-11-30T06:59:46.616Z,100591.41
2022-11-30T07:02:18.154Z,100595.66
2022-11-30T07:04:46.397Z,100596.94
2022-11-30T07:07:15.900Z,100594.69
2022-11-30T07:09:42.683Z,100595.66
2022-11-30T07:12:10.999Z,100599.41
2022-11-30T07:14:37.640Z,100589.87
2022-11-30T07:17:05.852Z,100590.59
2022-11-30T07:19:43.234Z,100589.41
2022-11-30T07:22:19.285Z,100586.09
2022-11-30T07:25:10.795Z,100594.34
2022-11-30T07:27:37.406Z,100588.25
2022-11-30T07:35:55.136Z,100593.66
2022-11-30T07:38:22.158Z,100589.06
2022-11-30T07:41:10.923Z,100586.34
2022-11-30T07:43:37.571Z,100593.03
2022-11-30T07:46:05.219Z,100588.63
2022-11-30T07:48:35.228Z,100585.91
2022-11-30T07:55:07.989Z,100593.06
2022-11-30T07:57:34.508Z,100597.66
2022-11-30T08:00:01.014Z,100586.69
2022-11-30T08:02:27.607Z,100592.28
2022-11-30T08:07:56.809Z,100594.66
2022-11-30T08:58:38.286Z,100572.69
2022-11-30T09:01:13.286Z,100573.94
2022-11-30T09:03:41.004Z,100571.19
2022-11-30T09:06:12.870Z,100579.59
2022-11-30T09:08:43.343Z,100583.03
2022-11-30T09:27:36.563Z,100582.91
2022-11-30T09:30:03.634Z,100591.22
2022-11-30T09:32:30.241Z,100589.03
2022-11-30T09:34:56.798Z,100589.72
2022-11-30T09:37:25.202Z,100588.66
2022-11-30T09:48:18.471Z,100579.16
2022-11-30T09:50:48.128Z,100578.91
2022-11-30T09:53:43.232Z,100570.69
2022-11-30T09:56:22.981Z,100577.06
2022-11-30T09:59:14.147Z,100574.28
2022-11-30T10:01:44.959Z,100563.09
2022-11-30T10:04:24.732Z,100573.06
2022-11-30T10:07:24.991Z,100575.09
2022-11-30T10:15:38.702Z,100564.09
2022-11-30T10:18:24.550Z,100570.19
2022-11-30T10:21:12.324Z,100556.97
2022-11-30T10:24:38.918Z,100553.44
2022-11-30T10:27:16.513Z,100547.38
2022-11-30T10:29:44.078Z,100537.97
2022-11-30T10:32:22.440Z,100537.66
2022-11-30T10:56:13.581Z,100543.62
2022-11-30T10:59:02.647Z,100546.22
2022-11-30T11:01:35.747Z,100532.47
2022-11-30T11:04:14.655Z,100536.72
2022-11-30T11:07:38.439Z,100533.09
2022-11-30T11:11:08.065Z,100533.97
2022-11-30T11:14:22.450Z,100533.47
2022-11-30T11:17:28.634Z,100536.91
2022-11-30T11:19:55.767Z,100542.28
2022-11-30T11:22:27.946Z,100531.13
2022-11-30T11:25:09.119Z,100534.38
2022-11-30T11:27:41.203Z,100533.38
2022-11-30T11:30:26.406Z,100529.13
2022-11-30T11:33:03.831Z,100528.78
2022-11-30T11:39:26.298Z,100539.50
2022-11-30T11:41:55.342Z,100532.59
2022-11-30T11:44:25.904Z,100538.00
2022-11-30T11:57:53.490Z,100539.22
2022-11-30T12:00:23.383Z,100536.19
2022-11-30T12:03:06.769Z,100528.44
2022-11-30T12:09:41.296Z,100519.53
2022-11-30T12:12:13.104Z,100519.38
2022-11-30T12:14:39.760Z,100515.97
2022-11-30T12:17:23.613Z,100515.22
2022-11-30T12:20:11.527Z,100515.06
2022-11-30T12:22:44.179Z,100514.16
2022-11-30T12:25:13.648Z,100512.25
2022-11-30T12:27:40.158Z,100512.16
2022-11-30T12:30:15.844Z,100507.31
2022-11-30T12:33:20.792Z,100504.59
2022-11-30T12:36:08.763Z,100504.03
2022-11-30T13:09:06.164Z,100506.03
2022-11-30T13:11:38.475Z,100493.56
2022-11-30T13:14:22.082Z,100488.75
2022-11-30T13:16:56.343Z,100492.62
2022-11-30T13:19:40.979Z,100505.34
2022-11-30T13:22:28.625Z,100508.34
2022-11-30T13:25:09.936Z,100509.00
2022-11-30T13:27:46.342Z,100503.31
2022-11-30T13:30:34.307Z,100500.97
2022-11-30T13:33:38.263Z,100514.56
2022-11-30T13:36:07.534Z,100526.13
2022-11-30T13:38:37.452Z,100514.06
2022-11-30T13:41:07.514Z,100514.97
2022-11-30T13:43:44.159Z,100510.16
2022-11-30T13:46:11.876Z,100516.56
2022-11-30T13:48:40.679Z,100521.06
2022-11-30T13:51:08.159Z,100518.56
2022-11-30T13:53:37.331Z,100521.16
2022-11-30T13:56:34.057Z,100518.50
2022-11-30T13:59:25.314Z,100511.09
2022-11-30T14:05:14.416Z,100514.00
2022-11-30T14:07:41.157Z,100520.72
2022-11-30T14:10:46.408Z,100518.31
2022-11-30T14:13:14.122Z,100518.81
2022-11-30T14:15:43.557Z,100517.88
2022-11-30T14:18:10.148Z,100521.59
2022-11-30T14:20:45.829Z,100516.97
2022-11-30T14:23:19.003Z,100523.25
2022-11-30T14:25:51.839Z,100509.97
2022-11-30T14:28:31.555Z,100512.28
2022-11-30T14:31:00.088Z,100516.78
2022-11-30T14:33:44.570Z,100518.50
2022-11-30T14:36:12.263Z,100510.84
2022-11-30T14:38:42.190Z,100512.16
2022-11-30T14:41:41.167Z,100521.16
2022-11-30T14:44:14.393Z,100513.94
2022-11-30T14:46:41.521Z,100514.47
2022-11-30T14:49:19.787Z,100498.06
2022-11-30T14:51:50.623Z,100504.03
2022-11-30T14:54:44.648Z,100501.03
2022-11-30T14:57:30.124Z,100500.06
2022-11-30T14:59:57.715Z,100500.63
2022-11-30T15:02:28.647Z,100509.25
2022-11-30T15:04:56.930Z,100500.16
2022-11-30T15:10:09.450Z,100498.66
2022-11-30T15:12:39.992Z,100497.87
2022-11-30T15:15:14.070Z,100502.19
2022-11-30T15:20:38.952Z,100510.34
2022-11-30T15:23:05.595Z,100513.00
2022-11-30T15:25:39.488Z,100515.91
2022-11-30T15:28:07.399Z,100516.66
2022-11-30T15:30:38.426Z,100521.75
2022-11-30T15:33:05.093Z,100514.56
2022-11-30T15:38:08.687Z,100514.25
2022-11-30T15:40:35.587Z,100506.25
2022-11-30T15:43:02.645Z,100502.50
2022-11-30T15:45:36.349Z,100513.00
2022-11-30T15:48:03.713Z,100511.22
2022-11-30T15:50:45.512Z,100498.59
2022-11-30T15:53:47.391Z,100505.25
2022-11-30T15:56:27.263Z,100508.81
2022-11-30T15:59:04.500Z,100507.94
2022-11-30T16:01:32.209Z,100510.09
2022-11-30T16:04:00.104Z,100508.81
2022-11-30T16:06:33.922Z,100514.63
2022-11-30T16:25:54.536Z,100493.84
2022-11-30T16:28:23.144Z,100492.78
2022-11-30T16:30:50.289Z,100488.66
2022-11-30T16:33:22.398Z,100488.13
2022-11-30T16:35:56.156Z,100498.37
2022-11-30T16:38:38.119Z,100506.84
2022-11-30T16:41:23.028Z,100492.25
2022-11-30T16:43:51.700Z,100505.44
2022-11-30T16:46:33.572Z,100507.03
2022-11-30T16:49:47.456Z,100497.47
2022-11-30T16:52:30.957Z,100502.19
2022-11-30T16:54:57.340Z,100509.19
2022-11-30T16:57:23.891Z,100512.13
2022-11-30T16:59:50.412Z,100515.47
2022-11-30T17:02:22.296Z,100525.59
2022-11-30T17:04:49.096Z,100514.97
2022-11-30T17:07:15.806Z,100515.88
2022-11-30T17:09:42.500Z,100504.31
2022-11-30T17:12:09.626Z,100498.69
2022-11-30T17:14:36.364Z,100497.53
2022-11-30T17:17:03.031Z,100497.97
2022-11-30T17:19:29.681Z,100493.00
2022-11-30T17:21:56.420Z,100508.44
2022-11-30T17:24:22.956Z,100508.69
2022-11-30T17:26:49.859Z,100513.69
2022-11-30T17:29:16.506Z,100510.97
2022-11-30T17:31:43.062Z,100512.41
2022-11-30T17:34:09.790Z,100515.13
2022-11-30T17:36:36.464Z,100513.78
2022-11-30T17:39:09.111Z,100521.13
2022-11-30T17:41:35.684Z,100517.03
2022-11-30T17:44:02.862Z,100524.78
2022-11-30T17:46:29.610Z,100525.69
2022-11-30T17:48:59.457Z,100522.16
2022-11-30T17:51:26.347Z,100529.56
2022-11-30T17:53:53.027Z,100529.00
2022-11-30T17:56:19.636Z,100529.66
2022-11-30T17:58:49.102Z,100532.88
2022-11-30T18:01:19.788Z,100536.34
2022-11-30T18:03:47.094Z,100526.78
2022-11-30T18:06:14.434Z,100527.94
2022-11-30T18:08:41.086Z,100528.09
2022-11-30T18:11:20.261Z,100528.44
2022-11-30T18:13:48.265Z,100526.44
2022-11-30T18:16:18.590Z,100525.19
2022-11-30T18:18:48.015Z,100528.84
2022-11-30T18:21:16.993Z,100524.87
2022-11-30T18:23:43.562Z,100521.56
2022-11-30T18:26:16.140Z,100526.00
2022-11-30T18:28:47.093Z,100528.72
2022-11-30T18:31:13.768Z,100530.62
2022-11-30T18:33:40.890Z,100524.25
2022-11-30T18:36:08.035Z,100524.47
2022-11-30T18:38:37.926Z,100530.16
2022-11-30T18:41:06.303Z,100534.75
2022-11-30T18:43:33.901Z,100538.03
2022-11-30T18:46:19.118Z,100531.56
2022-11-30T18:48:49.104Z,100527.44
2022-11-30T18:51:24.575Z,100529.16
2022-11-30T18:53:57.726Z,100525.72
2022-11-30T18:56:26.335Z,100526.28
2022-11-30T18:58:58.405Z,100527.03
2022-11-30T19:01:25.604Z,100529.25
2022-11-30T19:03:57.253Z,100527.19
2022-11-30T19:06:25.283Z,100538.78
2022-11-30T19:08:51.873Z,100529.72
2022-11-30T19:11:18.440Z,100526.72
2022-11-30T19:13:45.897Z,100537.34
2022-11-30T19:16:16.065Z,100536.19
2022-11-30T19:18:45.010Z,100529.19
2022-11-30T19:21:17.028Z,100535.22
2022-11-30T19:23:44.336Z,100542.22
2022-11-30T19:26:12.042Z,100544.69
2022-11-30T19:28:39.904Z,100542.31
2022-11-30T19:31:17.880Z,100548.16
2022-11-30T19:33:47.657Z,100551.75
2022-11-30T19:36:17.613Z,100557.72
2022-11-30T19:38:44.933Z,100547.59
2022-11-30T19:41:14.203Z,100553.84
2022-11-30T19:43:41.284Z,100558.56
2022-11-30T19:46:16.126Z,100553.38
2022-11-30T19:48:43.893Z,100559.16
2022-11-30T19:51:16.440Z,100554.22
2022-11-30T19:53:44.533Z,100549.59
2022-11-30T20:12:23.466Z,100540.78
2022-11-30T20:14:53.684Z,100533.78
2022-11-30T20:17:20.376Z,100545.56
2022-11-30T20:19:46.917Z,100533.47
2022-11-30T20:22:13.467Z,100533.00
2022-11-30T20:24:40.033Z,100533.44
2022-11-30T20:27:07.209Z,100532.25
2022-11-30T20:29:33.799Z,100538.00
2022-11-30T20:32:00.359Z,100536.88
2022-11-30T20:34:32.679Z,100537.12
2022-11-30T20:37:00.815Z,100544.31
2022-11-30T20:39:27.336Z,100535.75
2022-11-30T20:41:53.893Z,100530.41
2022-11-30T20:44:20.630Z,100532.88
2022-11-30T20:46:47.205Z,100537.53
2022-11-30T20:49:21.223Z,100540.47
2022-11-30T20:51:48.480Z,100545.37
2022-11-30T20:54:16.247Z,100545.87
2022-11-30T20:56:43.208Z,100541.09
2022-11-30T20:59:15.626Z,100539.25
2022-11-30T21:01:44.262Z,100545.63
2022-11-30T21:04:11.414Z,100543.78
2022-11-30T21:06:38.239Z,100546.44
2022-11-30T21:09:04.959Z,100539.19
2022-11-30T21:11:31.694Z,100537.63
2022-11-30T21:13:58.566Z,100546.66
2022-11-30T21:16:28.586Z,100544.16
2022-11-30T21:18:59.528Z,100552.63
2022-11-30T21:21:30.444Z,100556.63
2022-11-30T21:24:00.119Z,100562.13
2022-11-30T21:26:32.755Z,100559.44
2022-11-30T21:29:01.840Z,100565.31
2022-11-30T21:31:28.808Z,100569.94
2022-11-30T21:33:55.471Z,100576.88
2022-11-30T21:36:23.516Z,100584.25
2022-11-30T21:38:58.177Z,100590.06
2022-11-30T21:41:29.693Z,100589.00
2022-11-30T21:43:56.628Z,100590.41
2022-11-30T21:46:23.745Z,100592.94
2022-11-30T21:48:50.673Z,100590.00
2022-11-30T21:51:21.300Z,100605.22
2022-11-30T21:53:59.428Z,100601.41
2022-11-30T21:56:28.856Z,100600.31
2022-11-30T21:58:56.734Z,100607.44
2022-11-30T22:01:27.542Z,100609.78
2022-11-30T22:03:55.895Z,100605.72
2022-11-30T22:06:25.081Z,100609.59
2022-11-30T22:08:51.856Z,100606.66
2022-11-30T22:11:23.090Z,100607.03
2022-11-30T22:13:53.894Z,100604.78
2022-11-30T22:16:22.712Z,100601.66
2022-11-30T22:18:53.041Z,100594.94
2022-11-30T22:21:30.395Z,100594.19
2022-11-30T22:24:09.507Z,100596.47
2022-11-30T22:26:38.551Z,100599.75
2022-11-30T22:29:13.060Z,100593.50
2022-11-30T22:31:42.342Z,100588.88
2022-11-30T22:34:09.349Z,100580.97
2022-11-30T22:36:37.732Z,100597.03
2022-11-30T22:39:19.357Z,100584.50
2022-11-30T22:41:51.275Z,100582.19
2022-11-30T22:44:21.820Z,100572.78
2022-11-30T22:46:48.406Z,100578.41
2022-11-30T22:49:20.686Z,100579.63
2022-11-30T22:51:48.378Z,100576.75
2022-11-30T22:54:15.136Z,100573.22
2022-11-30T22:56:41.823Z,100572.53
2022-11-30T22:59:12.009Z,100573.56
2022-11-30T23:01:45.644Z,100572.13
2022-11-30T23:04:15.436Z,100568.56
2022-11-30T23:06:43.313Z,100568.81
2022-11-30T23:09:16.054Z,100557.06
2022-11-30T23:11:42.915Z,100555.16
2022-11-30T23:14:09.852Z,100552.81
2022-11-30T23:16:37.083Z,100548.34
2022-11-30T23:19:04.662Z,100549.75
2022-11-30T23:21:50.252Z,100557.12
2022-11-30T23:24:22.052Z,100556.78
2022-11-30T23:26:49.234Z,100558.75
2022-11-30T23:29:17.614Z,100550.75
2022-11-30T23:31:45.284Z,100553.06
2022-11-30T23:34:16.703Z,100562.81
2022-11-30T23:36:43.319Z,100563.09
2022-11-30T23:39:12.887Z,100573.16
2022-11-30T23:41:39.966Z,100579.03
2022-11-30T23:44:07.300Z,100566.22
2022-11-30T23:46:34.527Z,100571.25
2022-11-30T23:49:01.182Z,100567.59
2022-11-30T23:51:27.832Z,100563.47
2022-11-30T23:54:03.572Z,100576.28
2022-11-30T23:56:30.268Z,100575.59
2022-11-30T23:58:56.824Z,100578.69
